Brussels, Belgium

2:34 AM CEST on October 25, 2014 (GMT +0200)
Berg | Change Station
CLOSE
Current Station
Personal Weather Station
Location: Kampenhout, VLAAMS BRABANT
Elevation: 54 ft
Nearby Weather Stations

Elev 54 ft 50.93 °N, 4.53 °E | Updated 2 minutes ago

Rain
Rain
53.4 °F
Feels Like 53.4 °F
N
4.0
Wind Variable Wind from SW
Gusts 9.0 mph

Today
High -- | Low -- °F
--% Chance of Precip.
Yesterday
High -- | Low -- °F
Precip. -- in
8:21 AM 6:29 PM
New Moon, 1% visible
Pressure 30.04 in
Visibility 2.5 miles
Clouds Few 400 ft
Mostly Cloudy 700 ft
Overcast 900 ft
Dew Point 52 °F
Humidity 96%
Rainfall 0.02 in
Snow Depth Not available.
UV 0.0 out of 12
Pollen Not available.
Air Quality Not available.
Flu Activity Not available.
METAR EBBE 250025Z AUTO 21010KT 4000 FEW004/// BKN007/// OVC009/// 11/10 Q1017 GRN

More Conditions Fewer Conditions

Pressure 30.04 in
Visibility 2.5 miles
Clouds Few 400 ft
Mostly Cloudy 700 ft
Overcast 900 ft
Dew Point 52 °F
Humidity 96%
Rainfall 0.02 in
Snow Depth Not available.
UV 0.0 out of 12
Pollen Not available.
Air Quality Not available.
Flu Activity Not available.
METAR EBBE 250025Z AUTO 21010KT 4000 FEW004/// BKN007/// OVC009/// 11/10 Q1017 GRN

More Conditions Fewer Conditions

10-Day Weather Forecast

Almanac

Astronomy

Oct. 25, 2014 Rise Set
Actual Time 8:21 AM CEST 6:29 PM CEST
Civil Twilight 7:47 AM CEST 7:03 PM CEST
Nautical Twilight 7:08 AM CEST 7:42 PM CEST
Astronomical Twilight 6:30 AM CEST 8:20 PM CEST
Moon 9:52 AM CEST 7:32 PM CEST
Length of Visible Light 11h 16m
Length of Day
10h 08m
Tomorrow will be 3m 37s shorter.
New Moon, 1% of the Moon is Illuminated
Oct 24
New Moon
Oct 30
First Quarter
Nov 6
Full
Nov 14
Last Quarter
Nov 22
New

Yesterday's Extremes

Country Highs Country Lows

Community

WunderPhotos

Upload Photos

1,764,727 photos uploaded!

WunderBlogs® & News

Nearby

Snow Depth

Not available.

Earthquake Activity

City Distance Mag. Time & Date
No recent earthquake activity has been reported nearby.
Minimum magnitude displayed is 2.5.

Coastal Water Temperatures

Place Temperature
No Stations Reporting

Nearby Weather Stations